sensor_id;sensor_type;location;lat;lon;timestamp;temperature;humidity
11666;DHT22;5889;51.350;6.708;2023-08-01T00:00:06;18.30;99.90
11666;DHT22;5889;51.350;6.708;2023-08-01T00:02:34;18.30;99.90
11666;DHT22;5889;51.350;6.708;2023-08-01T00:05:01;18.20;99.90
11666;DHT22;5889;51.350;6.708;2023-08-01T00:07:28;18.20;99.90
11666;DHT22;5889;51.350;6.708;2023-08-01T00:09:55;18.20;99.90
11666;DHT22;5889;51.350;6.708;2023-08-01T00:12:24;18.20;99.90
11666;DHT22;5889;51.350;6.708;2023-08-01T00:14:51;18.20;99.90
11666;DHT22;5889;51.350;6.708;2023-08-01T00:17:19;18.20;99.90
11666;DHT22;5889;51.350;6.708;2023-08-01T00:19:46;18.20;99.90
11666;DHT22;5889;51.350;6.708;2023-08-01T00:22:13;18.20;99.90
11666;DHT22;5889;51.350;6.708;2023-08-01T00:24:40;18.10;99.90
11666;DHT22;5889;51.350;6.708;2023-08-01T00:27:08;18.20;99.90
11666;DHT22;5889;51.350;6.708;2023-08-01T00:29:36;18.20;99.90
11666;DHT22;5889;51.350;6.708;2023-08-01T00:32:03;18.10;99.90
11666;DHT22;5889;51.350;6.708;2023-08-01T00:34:32;18.10;99.90
11666;DHT22;5889;51.350;6.708;2023-08-01T00:36:59;18.10;99.90
11666;DHT22;5889;51.350;6.708;2023-08-01T00:39:26;18.10;99.90
11666;DHT22;5889;51.350;6.708;2023-08-01T00:41:53;18.10;99.90
11666;DHT22;5889;51.350;6.708;2023-08-01T00:44:20;18.10;99.90
11666;DHT22;5889;51.350;6.708;2023-08-01T00:46:47;18.10;99.90
11666;DHT22;5889;51.350;6.708;2023-08-01T00:49:14;18.10;99.90
11666;DHT22;5889;51.350;6.708;2023-08-01T00:51:42;18.10;99.90
11666;DHT22;5889;51.350;6.708;2023-08-01T00:54:10;18.10;99.90
11666;DHT22;5889;51.350;6.708;2023-08-01T00:56:37;18.10;99.90
11666;DHT22;5889;51.350;6.708;2023-08-01T00:59:05;18.10;99.90
11666;DHT22;5889;51.350;6.708;2023-08-01T01:01:32;18.10;99.90
11666;DHT22;5889;51.350;6.708;2023-08-01T01:03:59;18.10;99.90
11666;DHT22;5889;51.350;6.708;2023-08-01T01:06:32;18.10;99.90
11666;DHT22;5889;51.350;6.708;2023-08-01T01:09:01;18.00;99.90
11666;DHT22;5889;51.350;6.708;2023-08-01T01:31:36;18.00;99.90
11666;DHT22;5889;51.350;6.708;2023-08-01T01:34:03;18.00;99.90
11666;DHT22;5889;51.350;6.708;2023-08-01T01:36:31;18.00;99.90
11666;DHT22;5889;51.350;6.708;2023-08-01T01:38:58;18.00;99.90
11666;DHT22;5889;51.350;6.708;2023-08-01T01:41:25;18.00;99.90
11666;DHT22;5889;51.350;6.708;2023-08-01T01:43:52;18.10;99.90
11666;DHT22;5889;51.350;6.708;2023-08-01T01:46:19;18.10;99.90
11666;DHT22;5889;51.350;6.708;2023-08-01T01:48:47;18.10;99.90
11666;DHT22;5889;51.350;6.708;2023-08-01T01:51:14;18.10;99.90
11666;DHT22;5889;51.350;6.708;2023-08-01T01:53:41;18.10;99.90
11666;DHT22;5889;51.350;6.708;2023-08-01T01:56:09;18.10;99.90
11666;DHT22;5889;51.350;6.708;2023-08-01T01:58:36;18.10;99.90
11666;DHT22;5889;51.350;6.708;2023-08-01T02:01:03;18.00;99.90
11666;DHT22;5889;51.350;6.708;2023-08-01T02:03:30;17.90;99.90
11666;DHT22;5889;51.350;6.708;2023-08-01T02:05:58;17.30;99.90
11666;DHT22;5889;51.350;6.708;2023-08-01T02:08:25;16.80;99.90
11666;DHT22;5889;51.350;6.708;2023-08-01T02:10:52;16.60;99.90
11666;DHT22;5889;51.350;6.708;2023-08-01T02:13:20;16.50;99.90
11666;DHT22;5889;51.350;6.708;2023-08-01T02:15:47;16.40;99.90
11666;DHT22;5889;51.350;6.708;2023-08-01T02:18:14;16.50;99.90
11666;DHT22;5889;51.350;6.708;2023-08-01T02:20:41;16.50;99.90
11666;DHT22;5889;51.350;6.708;2023-08-01T02:23:09;16.60;99.90
11666;DHT22;5889;51.350;6.708;2023-08-01T02:25:38;16.60;99.90
11666;DHT22;5889;51.350;6.708;2023-08-01T02:28:05;16.70;99.90
11666;DHT22;5889;51.350;6.708;2023-08-01T02:30:33;16.70;99.90
11666;DHT22;5889;51.350;6.708;2023-08-01T02:32:59;16.70;99.90
11666;DHT22;5889;51.350;6.708;2023-08-01T02:35:27;16.70;99.90
11666;DHT22;5889;51.350;6.708;2023-08-01T02:37:54;16.70;99.90
11666;DHT22;5889;51.350;6.708;2023-08-01T02:40:22;16.80;99.90
11666;DHT22;5889;51.350;6.708;2023-08-01T02:42:49;16.80;99.90
11666;DHT22;5889;51.350;6.708;2023-08-01T02:45:16;16.80;99.90
11666;DHT22;5889;51.350;6.708;2023-08-01T02:47:43;16.80;99.90
11666;DHT22;5889;51.350;6.708;2023-08-01T02:50:10;16.80;99.90
11666;DHT22;5889;51.350;6.708;2023-08-01T02:52:37;16.80;99.90
11666;DHT22;5889;51.350;6.708;2023-08-01T02:55:04;16.80;99.90
11666;DHT22;5889;51.350;6.708;2023-08-01T02:57:33;16.80;99.90
11666;DHT22;5889;51.350;6.708;2023-08-01T03:00:00;16.80;99.90
11666;DHT22;5889;51.350;6.708;2023-08-01T03:02:30;16.80;99.90
11666;DHT22;5889;51.350;6.708;2023-08-01T03:04:57;16.80;99.90
11666;DHT22;5889;51.350;6.708;2023-08-01T03:07:24;16.80;99.90
11666;DHT22;5889;51.350;6.708;2023-08-01T03:09:51;16.80;99.90
11666;DHT22;5889;51.350;6.708;2023-08-01T03:12:18;16.80;99.90
11666;DHT22;5889;51.350;6.708;2023-08-01T03:14:46;16.80;99.90
11666;DHT22;5889;51.350;6.708;2023-08-01T03:17:13;16.80;99.90
11666;DHT22;5889;51.350;6.708;2023-08-01T03:19:40;16.70;99.90
11666;DHT22;5889;51.350;6.708;2023-08-01T03:22:07;16.60;99.90
11666;DHT22;5889;51.350;6.708;2023-08-01T03:24:34;16.50;99.90
11666;DHT22;5889;51.350;6.708;2023-08-01T03:27:01;16.50;99.90
11666;DHT22;5889;51.350;6.708;2023-08-01T03:29:28;16.40;99.90
11666;DHT22;5889;51.350;6.708;2023-08-01T03:31:57;16.40;99.90
11666;DHT22;5889;51.350;6.708;2023-08-01T03:34:24;16.30;99.90
11666;DHT22;5889;51.350;6.708;2023-08-01T03:36:52;16.30;99.90
11666;DHT22;5889;51.350;6.708;2023-08-01T03:39:19;16.30;99.90
11666;DHT22;5889;51.350;6.708;2023-08-01T03:41:46;16.20;99.90
11666;DHT22;5889;51.350;6.708;2023-08-01T03:44:13;16.20;99.90
11666;DHT22;5889;51.350;6.708;2023-08-01T03:46:41;16.20;99.90
11666;DHT22;5889;51.350;6.708;2023-08-01T03:49:10;16.20;99.90
11666;DHT22;5889;51.350;6.708;2023-08-01T03:51:37;16.20;99.90
11666;DHT22;5889;51.350;6.708;2023-08-01T03:54:04;16.30;99.90
11666;DHT22;5889;51.350;6.708;2023-08-01T03:56:31;16.20;99.90
11666;DHT22;5889;51.350;6.708;2023-08-01T03:58:58;16.20;99.90
11666;DHT22;5889;51.350;6.708;2023-08-01T04:01:25;16.30;99.90
11666;DHT22;5889;51.350;6.708;2023-08-01T04:03:52;16.30;99.90
11666;DHT22;5889;51.350;6.708;2023-08-01T04:06:20;16.30;99.90
11666;DHT22;5889;51.350;6.708;2023-08-01T04:08:47;16.30;99.90
11666;DHT22;5889;51.350;6.708;2023-08-01T04:11:14;16.30;99.90
11666;DHT22;5889;51.350;6.708;2023-08-01T04:13:41;16.40;99.90
11666;DHT22;5889;51.350;6.708;2023-08-01T04:16:08;16.40;99.90
11666;DHT22;5889;51.350;6.708;2023-08-01T04:18:35;16.40;99.90
11666;DHT22;5889;51.350;6.708;2023-08-01T04:21:02;16.50;99.90
11666;DHT22;5889;51.350;6.708;2023-08-01T04:23:30;16.50;99.90
11666;DHT22;5889;51.350;6.708;2023-08-01T04:25:57;16.50;99.90
11666;DHT22;5889;51.350;6.708;2023-08-01T04:28:25;16.50;99.90
11666;DHT22;5889;51.350;6.708;2023-08-01T04:30:52;16.60;99.90
11666;DHT22;5889;51.350;6.708;2023-08-01T04:33:19;16.50;99.90
11666;DHT22;5889;51.350;6.708;2023-08-01T04:35:46;16.50;99.90
11666;DHT22;5889;51.350;6.708;2023-08-01T04:38:14;16.50;99.90
11666;DHT22;5889;51.350;6.708;2023-08-01T04:40:43;16.50;99.90
11666;DHT22;5889;51.350;6.708;2023-08-01T04:43:11;16.50;99.90
11666;DHT22;5889;51.350;6.708;2023-08-01T04:45:38;16.50;99.90
11666;DHT22;5889;51.350;6.708;2023-08-01T04:48:10;16.50;99.90
11666;DHT22;5889;51.350;6.708;2023-08-01T04:50:37;16.50;99.90
11666;DHT22;5889;51.350;6.708;2023-08-01T04:53:04;16.50;99.90
11666;DHT22;5889;51.350;6.708;2023-08-01T04:55:31;16.50;99.90
11666;DHT22;5889;51.350;6.708;2023-08-01T04:58:00;16.50;99.90
11666;DHT22;5889;51.350;6.708;2023-08-01T05:00:27;16.50;99.90
11666;DHT22;5889;51.350;6.708;2023-08-01T05:02:54;16.50;99.90
11666;DHT22;5889;51.350;6.708;2023-08-01T05:05:21;16.50;99.90
11666;DHT22;5889;51.350;6.708;2023-08-01T05:07:48;16.40;99.90
11666;DHT22;5889;51.350;6.708;2023-08-01T05:10:15;16.40;99.90
11666;DHT22;5889;51.350;6.708;2023-08-01T05:12:42;16.50;99.90
11666;DHT22;5889;51.350;6.708;2023-08-01T05:15:10;16.50;99.90
11666;DHT22;5889;51.350;6.708;2023-08-01T05:17:38;16.50;99.90
11666;DHT22;5889;51.350;6.708;2023-08-01T05:20:06;16.50;99.90
11666;DHT22;5889;51.350;6.708;2023-08-01T05:22:33;16.50;99.90
11666;DHT22;5889;51.350;6.708;2023-08-01T05:25:01;16.60;99.90
11666;DHT22;5889;51.350;6.708;2023-08-01T05:27:29;16.60;99.90
11666;DHT22;5889;51.350;6.708;2023-08-01T05:29:56;16.70;99.90
11666;DHT22;5889;51.350;6.708;2023-08-01T05:32:24;16.70;99.90
11666;DHT22;5889;51.350;6.708;2023-08-01T05:34:51;16.70;99.90
11666;DHT22;5889;51.350;6.708;2023-08-01T05:37:18;16.80;99.90
11666;DHT22;5889;51.350;6.708;2023-08-01T05:39:45;16.80;99.90
11666;DHT22;5889;51.350;6.708;2023-08-01T05:42:12;16.80;99.90
11666;DHT22;5889;51.350;6.708;2023-08-01T05:44:39;16.80;99.90
11666;DHT22;5889;51.350;6.708;2023-08-01T05:47:06;16.90;99.90
11666;DHT22;5889;51.350;6.708;2023-08-01T05:49:34;16.90;99.90
11666;DHT22;5889;51.350;6.708;2023-08-01T05:52:01;16.90;99.90
11666;DHT22;5889;51.350;6.708;2023-08-01T05:54:28;17.00;99.90
11666;DHT22;5889;51.350;6.708;2023-08-01T05:56:55;17.00;99.90
11666;DHT22;5889;51.350;6.708;2023-08-01T05:59:22;17.10;99.90
11666;DHT22;5889;51.350;6.708;2023-08-01T06:01:49;17.10;99.90
11666;DHT22;5889;51.350;6.708;2023-08-01T06:04:16;17.20;99.90
11666;DHT22;5889;51.350;6.708;2023-08-01T06:06:45;17.30;99.90
11666;DHT22;5889;51.350;6.708;2023-08-01T06:09:11;17.30;99.90
11666;DHT22;5889;51.350;6.708;2023-08-01T06:11:38;17.30;99.90
11666;DHT22;5889;51.350;6.708;2023-08-01T06:14:05;17.30;99.90
11666;DHT22;5889;51.350;6.708;2023-08-01T06:16:32;17.30;99.90
11666;DHT22;5889;51.350;6.708;2023-08-01T06:18:59;17.30;99.90
11666;DHT22;5889;51.350;6.708;2023-08-01T06:21:27;17.30;99.90
11666;DHT22;5889;51.350;6.708;2023-08-01T06:23:55;17.30;99.90
11666;DHT22;5889;51.350;6.708;2023-08-01T06:26:22;17.30;99.90
11666;DHT22;5889;51.350;6.708;2023-08-01T06:28:49;17.30;99.90
11666;DHT22;5889;51.350;6.708;2023-08-01T06:31:18;17.30;99.90
11666;DHT22;5889;51.350;6.708;2023-08-01T06:33:45;17.30;99.90
11666;DHT22;5889;51.350;6.708;2023-08-01T06:36:12;17.40;99.90
11666;DHT22;5889;51.350;6.708;2023-08-01T06:38:39;17.40;99.90
11666;DHT22;5889;51.350;6.708;2023-08-01T06:41:07;17.50;99.90
11666;DHT22;5889;51.350;6.708;2023-08-01T06:43:34;17.50;99.90
11666;DHT22;5889;51.350;6.708;2023-08-01T06:46:03;17.60;99.90
11666;DHT22;5889;51.350;6.708;2023-08-01T06:48:30;17.60;99.90
11666;DHT22;5889;51.350;6.708;2023-08-01T06:50:57;17.60;99.90
11666;DHT22;5889;51.350;6.708;2023-08-01T06:53:24;17.60;99.90
11666;DHT22;5889;51.350;6.708;2023-08-01T06:55:51;17.60;99.90
11666;DHT22;5889;51.350;6.708;2023-08-01T06:58:19;17.60;99.90
11666;DHT22;5889;51.350;6.708;2023-08-01T07:00:46;17.70;99.90
11666;DHT22;5889;51.350;6.708;2023-08-01T07:03:13;17.80;99.90
11666;DHT22;5889;51.350;6.708;2023-08-01T07:05:40;17.80;99.90
11666;DHT22;5889;51.350;6.708;2023-08-01T07:08:07;18.00;99.90
11666;DHT22;5889;51.350;6.708;2023-08-01T07:10:34;18.10;99.90
11666;DHT22;5889;51.350;6.708;2023-08-01T07:13:01;18.20;99.90
11666;DHT22;5889;51.350;6.708;2023-08-01T07:15:31;18.20;99.90
11666;DHT22;5889;51.350;6.708;2023-08-01T07:17:58;18.20;99.90
11666;DHT22;5889;51.350;6.708;2023-08-01T07:20:25;18.20;99.90
11666;DHT22;5889;51.350;6.708;2023-08-01T07:22:52;18.20;99.90
11666;DHT22;5889;51.350;6.708;2023-08-01T07:25:19;18.30;99.90
11666;DHT22;5889;51.350;6.708;2023-08-01T07:27:46;18.30;99.90
11666;DHT22;5889;51.350;6.708;2023-08-01T07:30:13;18.40;99.90
11666;DHT22;5889;51.350;6.708;2023-08-01T07:32:41;18.40;99.90
11666;DHT22;5889;51.350;6.708;2023-08-01T07:35:09;18.40;99.90
11666;DHT22;5889;51.350;6.708;2023-08-01T07:37:36;18.40;99.90
11666;DHT22;5889;51.350;6.708;2023-08-01T07:40:04;18.30;99.90
11666;DHT22;5889;51.350;6.708;2023-08-01T07:42:32;18.40;99.90
11666;DHT22;5889;51.350;6.708;2023-08-01T07:44:59;18.40;99.90
11666;DHT22;5889;51.350;6.708;2023-08-01T07:47:26;18.40;99.90
11666;DHT22;5889;51.350;6.708;2023-08-01T07:49:54;18.40;99.90
11666;DHT22;5889;51.350;6.708;2023-08-01T07:52:21;18.60;99.90
11666;DHT22;5889;51.350;6.708;2023-08-01T07:54:48;18.60;99.90
11666;DHT22;5889;51.350;6.708;2023-08-01T07:57:15;18.80;99.90
11666;DHT22;5889;51.350;6.708;2023-08-01T07:59:42;18.90;99.90
11666;DHT22;5889;51.350;6.708;2023-08-01T08:02:09;19.00;99.90
11666;DHT22;5889;51.350;6.708;2023-08-01T08:04:36;19.30;99.90
11666;DHT22;5889;51.350;6.708;2023-08-01T08:07:05;19.60;99.90
11666;DHT22;5889;51.350;6.708;2023-08-01T08:09:32;19.90;99.90
11666;DHT22;5889;51.350;6.708;2023-08-01T08:11:59;20.00;99.90
11666;DHT22;5889;51.350;6.708;2023-08-01T08:14:26;20.00;99.90
11666;DHT22;5889;51.350;6.708;2023-08-01T08:16:53;19.90;99.90
11666;DHT22;5889;51.350;6.708;2023-08-01T08:19:20;19.80;99.90
11666;DHT22;5889;51.350;6.708;2023-08-01T08:21:49;19.60;99.90
11666;DHT22;5889;51.350;6.708;2023-08-01T08:24:18;19.50;99.90
11666;DHT22;5889;51.350;6.708;2023-08-01T08:26:44;19.50;99.90
11666;DHT22;5889;51.350;6.708;2023-08-01T08:29:11;19.60;99.90
11666;DHT22;5889;51.350;6.708;2023-08-01T08:31:38;19.70;99.90
11666;DHT22;5889;51.350;6.708;2023-08-01T08:34:05;19.60;99.90
11666;DHT22;5889;51.350;6.708;2023-08-01T08:36:32;19.70;99.90
11666;DHT22;5889;51.350;6.708;2023-08-01T08:38:59;19.80;99.90
11666;DHT22;5889;51.350;6.708;2023-08-01T08:41:28;19.80;99.90
11666;DHT22;5889;51.350;6.708;2023-08-01T08:43:57;19.90;99.90
11666;DHT22;5889;51.350;6.708;2023-08-01T08:46:27;20.10;99.90
11666;DHT22;5889;51.350;6.708;2023-08-01T08:48:55;20.30;99.90
11666;DHT22;5889;51.350;6.708;2023-08-01T08:51:25;20.60;99.90
11666;DHT22;5889;51.350;6.708;2023-08-01T08:53:54;20.90;99.90
11666;DHT22;5889;51.350;6.708;2023-08-01T08:56:23;21.10;99.90
11666;DHT22;5889;51.350;6.708;2023-08-01T08:58:51;21.20;99.90
11666;DHT22;5889;51.350;6.708;2023-08-01T09:01:18;21.40;99.90
11666;DHT22;5889;51.350;6.708;2023-08-01T09:03:45;21.50;99.90
11666;DHT22;5889;51.350;6.708;2023-08-01T09:06:14;21.30;99.90
11666;DHT22;5889;51.350;6.708;2023-08-01T09:08:50;21.20;99.90
11666;DHT22;5889;51.350;6.708;2023-08-01T09:11:17;21.10;99.90
11666;DHT22;5889;51.350;6.708;2023-08-01T09:13:44;21.20;99.90
11666;DHT22;5889;51.350;6.708;2023-08-01T09:16:14;21.20;99.90
11666;DHT22;5889;51.350;6.708;2023-08-01T09:18:49;20.90;99.90
11666;DHT22;5889;51.350;6.708;2023-08-01T09:21:18;21.10;99.90
11666;DHT22;5889;51.350;6.708;2023-08-01T09:23:45;21.50;99.90
11666;DHT22;5889;51.350;6.708;2023-08-01T09:26:13;22.00;99.90
11666;DHT22;5889;51.350;6.708;2023-08-01T09:28:40;22.20;99.90
11666;DHT22;5889;51.350;6.708;2023-08-01T09:31:07;22.00;99.90
11666;DHT22;5889;51.350;6.708;2023-08-01T09:33:41;21.60;99.90
11666;DHT22;5889;51.350;6.708;2023-08-01T09:36:09;21.30;99.90
11666;DHT22;5889;51.350;6.708;2023-08-01T09:38:36;21.30;99.90
11666;DHT22;5889;51.350;6.708;2023-08-01T09:41:04;21.40;99.90
11666;DHT22;5889;51.350;6.708;2023-08-01T09:43:34;21.60;99.90
11666;DHT22;5889;51.350;6.708;2023-08-01T09:46:03;21.70;99.90
11666;DHT22;5889;51.350;6.708;2023-08-01T09:48:30;21.80;99.90
11666;DHT22;5889;51.350;6.708;2023-08-01T09:51:10;21.80;99.90
11666;DHT22;5889;51.350;6.708;2023-08-01T09:53:47;22.00;99.90
11666;DHT22;5889;51.350;6.708;2023-08-01T09:56:15;22.10;99.90
11666;DHT22;5889;51.350;6.708;2023-08-01T09:58:43;21.80;99.90
11666;DHT22;5889;51.350;6.708;2023-08-01T10:01:13;21.50;99.90
11666;DHT22;5889;51.350;6.708;2023-08-01T10:03:44;21.40;99.90
11666;DHT22;5889;51.350;6.708;2023-08-01T10:06:16;21.30;99.90
11666;DHT22;5889;51.350;6.708;2023-08-01T10:08:44;21.10;99.90
11666;DHT22;5889;51.350;6.708;2023-08-01T10:11:12;21.00;99.90
11666;DHT22;5889;51.350;6.708;2023-08-01T10:13:41;21.00;99.90
11666;DHT22;5889;51.350;6.708;2023-08-01T10:16:09;21.40;99.90
11666;DHT22;5889;51.350;6.708;2023-08-01T10:18:37;21.80;99.90
11666;DHT22;5889;51.350;6.708;2023-08-01T10:21:05;22.20;99.90
11666;DHT22;5889;51.350;6.708;2023-08-01T10:23:34;22.10;99.90
11666;DHT22;5889;51.350;6.708;2023-08-01T10:26:05;22.00;99.90
11666;DHT22;5889;51.350;6.708;2023-08-01T10:28:33;21.90;99.90
11666;DHT22;5889;51.350;6.708;2023-08-01T10:31:11;21.60;99.90
11666;DHT22;5889;51.350;6.708;2023-08-01T10:33:38;21.40;99.90
11666;DHT22;5889;51.350;6.708;2023-08-01T10:36:16;21.00;99.90
11666;DHT22;5889;51.350;6.708;2023-08-01T10:38:49;20.10;99.90
11666;DHT22;5889;51.350;6.708;2023-08-01T10:41:25;19.50;99.90
11666;DHT22;5889;51.350;6.708;2023-08-01T10:43:52;19.30;99.90
11666;DHT22;5889;51.350;6.708;2023-08-01T10:46:19;19.30;99.90
11666;DHT22;5889;51.350;6.708;2023-08-01T10:48:50;19.10;99.90
11666;DHT22;5889;51.350;6.708;2023-08-01T10:51:18;18.90;99.90
11666;DHT22;5889;51.350;6.708;2023-08-01T10:53:46;19.10;99.90
11666;DHT22;5889;51.350;6.708;2023-08-01T10:56:19;19.40;99.90
11666;DHT22;5889;51.350;6.708;2023-08-01T10:58:47;20.00;99.90
11666;DHT22;5889;51.350;6.708;2023-08-01T11:01:14;20.40;99.90
11666;DHT22;5889;51.350;6.708;2023-08-01T11:03:41;20.80;99.90
11666;DHT22;5889;51.350;6.708;2023-08-01T11:06:09;21.00;99.90
11666;DHT22;5889;51.350;6.708;2023-08-01T11:08:37;21.20;99.90
11666;DHT22;5889;51.350;6.708;2023-08-01T11:11:05;21.10;99.90
11666;DHT22;5889;51.350;6.708;2023-08-01T11:13:34;21.20;99.90
11666;DHT22;5889;51.350;6.708;2023-08-01T11:16:02;20.90;99.90
11666;DHT22;5889;51.350;6.708;2023-08-01T11:18:30;20.70;99.90
11666;DHT22;5889;51.350;6.708;2023-08-01T11:20:57;20.40;99.90
11666;DHT22;5889;51.350;6.708;2023-08-01T11:23:33;20.40;99.90
11666;DHT22;5889;51.350;6.708;2023-08-01T11:26:06;20.30;99.90
11666;DHT22;5889;51.350;6.708;2023-08-01T11:28:35;20.20;99.90
11666;DHT22;5889;51.350;6.708;2023-08-01T11:31:10;20.10;99.90
11666;DHT22;5889;51.350;6.708;2023-08-01T11:33:38;20.30;99.90
11666;DHT22;5889;51.350;6.708;2023-08-01T11:36:05;20.40;99.90
11666;DHT22;5889;51.350;6.708;2023-08-01T11:38:33;20.60;99.90
11666;DHT22;5889;51.350;6.708;2023-08-01T11:41:03;20.70;99.90
11666;DHT22;5889;51.350;6.708;2023-08-01T11:43:39;20.60;99.90
11666;DHT22;5889;51.350;6.708;2023-08-01T11:46:07;20.40;99.90
11666;DHT22;5889;51.350;6.708;2023-08-01T11:48:34;20.30;99.90
11666;DHT22;5889;51.350;6.708;2023-08-01T11:51:02;20.10;99.90
11666;DHT22;5889;51.350;6.708;2023-08-01T11:53:30;20.20;99.90
11666;DHT22;5889;51.350;6.708;2023-08-01T11:55:56;20.30;99.90
11666;DHT22;5889;51.350;6.708;2023-08-01T11:58:34;20.30;99.90
11666;DHT22;5889;51.350;6.708;2023-08-01T12:01:06;20.40;99.90
11666;DHT22;5889;51.350;6.708;2023-08-01T12:03:42;20.50;99.90
11666;DHT22;5889;51.350;6.708;2023-08-01T12:06:09;20.50;99.90
11666;DHT22;5889;51.350;6.708;2023-08-01T12:08:39;20.50;99.90
11666;DHT22;5889;51.350;6.708;2023-08-01T12:11:16;20.40;99.90
11666;DHT22;5889;51.350;6.708;2023-08-01T12:13:43;20.40;99.90
11666;DHT22;5889;51.350;6.708;2023-08-01T12:16:11;20.40;99.90
11666;DHT22;5889;51.350;6.708;2023-08-01T12:18:41;20.30;99.90
11666;DHT22;5889;51.350;6.708;2023-08-01T12:21:08;20.30;99.90
11666;DHT22;5889;51.350;6.708;2023-08-01T12:23:36;20.20;99.90
11666;DHT22;5889;51.350;6.708;2023-08-01T12:26:03;20.20;99.90
11666;DHT22;5889;51.350;6.708;2023-08-01T12:28:30;20.30;99.90
11666;DHT22;5889;51.350;6.708;2023-08-01T12:30:57;20.50;99.90
11666;DHT22;5889;51.350;6.708;2023-08-01T12:33:25;20.60;99.90
11666;DHT22;5889;51.350;6.708;2023-08-01T12:35:52;20.70;99.90
11666;DHT22;5889;51.350;6.708;2023-08-01T12:38:19;20.80;99.90
11666;DHT22;5889;51.350;6.708;2023-08-01T12:40:46;21.20;99.90
11666;DHT22;5889;51.350;6.708;2023-08-01T12:43:13;21.50;99.90
11666;DHT22;5889;51.350;6.708;2023-08-01T12:45:42;21.70;99.90
11666;DHT22;5889;51.350;6.708;2023-08-01T12:48:09;21.80;99.90
11666;DHT22;5889;51.350;6.708;2023-08-01T12:50:37;21.90;99.90
11666;DHT22;5889;51.350;6.708;2023-08-01T12:53:04;21.90;99.90
11666;DHT22;5889;51.350;6.708;2023-08-01T12:55:31;22.10;99.90
11666;DHT22;5889;51.350;6.708;2023-08-01T12:57:58;22.40;99.90
11666;DHT22;5889;51.350;6.708;2023-08-01T13:00:25;22.50;99.90
11666;DHT22;5889;51.350;6.708;2023-08-01T13:02:54;22.60;99.90
11666;DHT22;5889;51.350;6.708;2023-08-01T13:05:21;22.70;99.90
11666;DHT22;5889;51.350;6.708;2023-08-01T13:07:49;22.50;99.90
11666;DHT22;5889;51.350;6.708;2023-08-01T13:10:16;22.10;99.90
11666;DHT22;5889;51.350;6.708;2023-08-01T13:12:43;22.00;99.90
11666;DHT22;5889;51.350;6.708;2023-08-01T13:15:10;22.30;99.90
11666;DHT22;5889;51.350;6.708;2023-08-01T13:17:38;22.60;99.90
11666;DHT22;5889;51.350;6.708;2023-08-01T13:20:06;22.90;99.90
11666;DHT22;5889;51.350;6.708;2023-08-01T13:22:34;22.60;99.90
11666;DHT22;5889;51.350;6.708;2023-08-01T13:25:06;21.60;99.90
11666;DHT22;5889;51.350;6.708;2023-08-01T13:27:38;20.90;99.90
11666;DHT22;5889;51.350;6.708;2023-08-01T13:30:06;20.30;99.90
11666;DHT22;5889;51.350;6.708;2023-08-01T13:32:34;19.90;99.90
11666;DHT22;5889;51.350;6.708;2023-08-01T13:35:02;19.80;99.90
11666;DHT22;5889;51.350;6.708;2023-08-01T13:37:29;19.90;99.90
11666;DHT22;5889;51.350;6.708;2023-08-01T13:39:56;20.00;99.90
11666;DHT22;5889;51.350;6.708;2023-08-01T13:42:25;20.00;99.90
11666;DHT22;5889;51.350;6.708;2023-08-01T13:44:54;20.30;99.90
11666;DHT22;5889;51.350;6.708;2023-08-01T13:47:21;20.40;99.90
11666;DHT22;5889;51.350;6.708;2023-08-01T13:49:48;20.60;99.90
11666;DHT22;5889;51.350;6.708;2023-08-01T13:52:15;21.00;99.90
11666;DHT22;5889;51.350;6.708;2023-08-01T13:54:42;21.50;99.90
11666;DHT22;5889;51.350;6.708;2023-08-01T13:57:09;21.90;99.90
11666;DHT22;5889;51.350;6.708;2023-08-01T13:59:37;22.20;99.90
11666;DHT22;5889;51.350;6.708;2023-08-01T14:02:05;22.40;99.90
11666;DHT22;5889;51.350;6.708;2023-08-01T14:04:32;22.60;99.60
11666;DHT22;5889;51.350;6.708;2023-08-01T14:06:59;22.70;99.90
11666;DHT22;5889;51.350;6.708;2023-08-01T14:09:28;22.50;98.60
11666;DHT22;5889;51.350;6.708;2023-08-01T14:11:57;22.10;99.80
11666;DHT22;5889;51.350;6.708;2023-08-01T14:14:24;22.00;99.40
11666;DHT22;5889;51.350;6.708;2023-08-01T14:16:53;22.20;99.90
11666;DHT22;5889;51.350;6.708;2023-08-01T14:19:20;22.50;99.40
11666;DHT22;5889;51.350;6.708;2023-08-01T14:21:47;22.70;98.30
11666;DHT22;5889;51.350;6.708;2023-08-01T14:24:14;22.80;98.40
11666;DHT22;5889;51.350;6.708;2023-08-01T14:26:41;23.00;98.60
11666;DHT22;5889;51.350;6.708;2023-08-01T14:29:08;23.10;98.50
11666;DHT22;5889;51.350;6.708;2023-08-01T14:31:35;23.10;97.70
11666;DHT22;5889;51.350;6.708;2023-08-01T14:34:03;23.10;97.50
11666;DHT22;5889;51.350;6.708;2023-08-01T14:36:30;23.10;98.20
11666;DHT22;5889;51.350;6.708;2023-08-01T14:38:57;23.40;98.30
11666;DHT22;5889;51.350;6.708;2023-08-01T14:41:24;23.50;97.90
11666;DHT22;5889;51.350;6.708;2023-08-01T14:43:51;23.60;98.40
11666;DHT22;5889;51.350;6.708;2023-08-01T14:46:17;23.80;97.90
11666;DHT22;5889;51.350;6.708;2023-08-01T14:48:45;23.70;97.70
11666;DHT22;5889;51.350;6.708;2023-08-01T14:51:13;23.90;96.70
11666;DHT22;5889;51.350;6.708;2023-08-01T14:53:40;23.90;97.20
11666;DHT22;5889;51.350;6.708;2023-08-01T14:56:07;23.70;96.80
11666;DHT22;5889;51.350;6.708;2023-08-01T14:58:34;23.30;97.20
11666;DHT22;5889;51.350;6.708;2023-08-01T15:01:04;23.20;97.90
11666;DHT22;5889;51.350;6.708;2023-08-01T15:03:31;23.20;98.50
11666;DHT22;5889;51.350;6.708;2023-08-01T15:06:05;22.90;99.00
11666;DHT22;5889;51.350;6.708;2023-08-01T15:08:33;23.00;98.40
11666;DHT22;5889;51.350;6.708;2023-08-01T15:11:03;22.50;99.90
11666;DHT22;5889;51.350;6.708;2023-08-01T15:13:31;22.00;99.80
11666;DHT22;5889;51.350;6.708;2023-08-01T15:15:58;21.60;99.90
11666;DHT22;5889;51.350;6.708;2023-08-01T15:18:26;21.50;99.90
11666;DHT22;5889;51.350;6.708;2023-08-01T15:20:53;21.40;99.90
11666;DHT22;5889;51.350;6.708;2023-08-01T15:23:20;21.40;99.90
11666;DHT22;5889;51.350;6.708;2023-08-01T15:25:55;21.10;99.90
11666;DHT22;5889;51.350;6.708;2023-08-01T15:28:23;21.30;99.90
11666;DHT22;5889;51.350;6.708;2023-08-01T15:31:01;21.70;99.90
11666;DHT22;5889;51.350;6.708;2023-08-01T15:33:29;22.20;99.50
11666;DHT22;5889;51.350;6.708;2023-08-01T15:36:00;22.40;98.40
11666;DHT22;5889;51.350;6.708;2023-08-01T15:38:27;22.50;97.80
11666;DHT22;5889;51.350;6.708;2023-08-01T15:40:58;22.40;97.80
11666;DHT22;5889;51.350;6.708;2023-08-01T15:43:27;22.50;97.90
11666;DHT22;5889;51.350;6.708;2023-08-01T15:45:55;22.60;96.80
11666;DHT22;5889;51.350;6.708;2023-08-01T15:48:22;22.50;97.60
11666;DHT22;5889;51.350;6.708;2023-08-01T15:50:49;22.70;97.00
11666;DHT22;5889;51.350;6.708;2023-08-01T15:53:16;22.60;97.10
11666;DHT22;5889;51.350;6.708;2023-08-01T15:55:43;22.80;96.30
11666;DHT22;5889;51.350;6.708;2023-08-01T15:58:11;22.90;96.00
11666;DHT22;5889;51.350;6.708;2023-08-01T16:00:38;23.00;96.40
11666;DHT22;5889;51.350;6.708;2023-08-01T16:03:08;23.10;96.30
11666;DHT22;5889;51.350;6.708;2023-08-01T16:05:36;23.30;96.20
11666;DHT22;5889;51.350;6.708;2023-08-01T16:08:04;23.40;95.40